Time;durP1;ratioP1;P1;durP2;ratioP2;P2;SDS_P1;SDS_P2;PMS_P1;PMS_P2;Temp;Humidity;BMP_temperature;BMP_pressure;BME280_temperature;BME280_humidity;BME280_pressure;Samples;Min_cycle;Max_cycle;Signal;HPM_P1;HPM_P2
2023/09/07 00:01:23;;;;;;;;;;;22.20;1.00;;;;;;5084163;28;19924;-72
2023/09/07 00:03:49;;;;;;;;;;;22.20;1.00;;;;;;5079636;28;19924;-71
2023/09/07 00:06:15;;;;;;;;;;;22.10;1.00;;;;;;5088518;28;19932;-71
2023/09/07 00:08:40;;;;;;;;;;;22.10;1.00;;;;;;5080330;28;19928;-71
2023/09/07 00:11:06;;;;;;;;;;;22.10;1.00;;;;;;5071935;28;20407;-71
2023/09/07 00:13:32;;;;;;;;;;;22.10;1.00;;;;;;5070746;28;19929;-71
2023/09/07 00:15:59;;;;;;;;;;;22.10;1.00;;;;;;5071319;28;19931;-71
2023/09/07 00:18:25;;;;;;;;;;;22.00;1.00;;;;;;5070735;28;20294;-71
2023/09/07 00:20:50;;;;;;;;;;;22.00;1.00;;;;;;5071330;28;19925;-72
2023/09/07 00:23:16;;;;;;;;;;;22.00;1.00;;;;;;5069976;28;19925;-71
2023/09/07 00:25:41;;;;;;;;;;;21.90;1.00;;;;;;5084019;28;19981;-71
2023/09/07 00:28:07;;;;;;;;;;;21.80;1.00;;;;;;5070814;28;19958;-71
2023/09/07 00:30:32;;;;;;;;;;;21.80;1.00;;;;;;5071566;28;19939;-71
2023/09/07 00:32:58;;;;;;;;;;;21.80;1.00;;;;;;5071316;28;19924;-71
2023/09/07 00:35:23;;;;;;;;;;;21.80;1.00;;;;;;5060039;28;19932;-71
2023/09/07 00:37:49;;;;;;;;;;;21.70;1.00;;;;;;5052762;28;19975;-71
2023/09/07 00:40:14;;;;;;;;;;;21.80;1.00;;;;;;5057151;28;19964;-72
2023/09/07 00:42:41;;;;;;;;;;;21.70;1.00;;;;;;5069854;28;19979;-71
2023/09/07 00:45:07;;;;;;;;;;;21.70;1.00;;;;;;5071105;28;20394;-71
2023/09/07 00:47:33;;;;;;;;;;;21.60;19.30;;;;;;5081311;28;19994;-71
2023/09/07 00:49:59;;;;;;;;;;;21.50;35.20;;;;;;5070186;28;20414;-71
2023/09/07 00:52:24;;;;;;;;;;;21.50;74.10;;;;;;5070547;28;19925;-72
2023/09/07 00:54:50;;;;;;;;;;;21.40;99.90;;;;;;5070223;28;19929;-71
2023/09/07 00:57:16;;;;;;;;;;;21.40;96.10;;;;;;5043706;28;19924;-71
2023/09/07 00:59:41;;;;;;;;;;;21.40;99.90;;;;;;5065202;28;20322;-71
2023/09/07 01:02:07;;;;;;;;;;;21.30;99.90;;;;;;5070334;28;19947;-71
2023/09/07 01:04:33;;;;;;;;;;;21.20;99.90;;;;;;5070370;28;19928;-71
2023/09/07 01:07:07;;;;;;;;;;;21.20;99.90;;;;;;5070090;28;19924;-71
2023/09/07 01:09:34;;;;;;;;;;;21.10;99.90;;;;;;5035690;28;19924;-71
2023/09/07 01:12:00;;;;;;;;;;;21.10;99.90;;;;;;5070002;28;20461;-71
2023/09/07 01:14:25;;;;;;;;;;;21.10;99.90;;;;;;5072483;28;19928;-71
2023/09/07 01:16:51;;;;;;;;;;;21.00;99.90;;;;;;5071378;28;19925;-71
2023/09/07 01:19:17;;;;;;;;;;;21.00;99.90;;;;;;5073040;28;19932;-71
2023/09/07 01:21:42;;;;;;;;;;;21.00;99.90;;;;;;5071106;28;19928;-71
2023/09/07 01:24:09;;;;;;;;;;;20.90;99.90;;;;;;5060173;28;19940;-71
2023/09/07 01:26:38;;;;;;;;;;;20.90;99.90;;;;;;5071197;28;19925;-71
2023/09/07 01:29:05;;;;;;;;;;;20.90;99.90;;;;;;5074982;28;20339;-71
2023/09/07 01:31:30;;;;;;;;;;;20.80;99.90;;;;;;5072276;28;19932;-71
2023/09/07 01:33:56;;;;;;;;;;;20.80;99.90;;;;;;5071671;28;19925;-71
2023/09/07 01:36:21;;;;;;;;;;;20.80;99.90;;;;;;5071784;28;20474;-71
2023/09/07 01:38:47;;;;;;;;;;;20.80;99.90;;;;;;5073983;28;19928;-71
2023/09/07 01:41:12;;;;;;;;;;;20.80;99.90;;;;;;5069599;28;19925;-71
2023/09/07 01:43:38;;;;;;;;;;;20.80;99.90;;;;;;5056164;28;19932;-71
2023/09/07 01:46:04;;;;;;;;;;;20.70;99.90;;;;;;5069375;28;20668;-71
2023/09/07 01:48:29;;;;;;;;;;;20.70;99.90;;;;;;5069165;28;19932;-71
2023/09/07 01:50:55;;;;;;;;;;;20.60;99.90;;;;;;5084601;28;19924;-72
2023/09/07 01:53:20;;;;;;;;;;;20.60;99.90;;;;;;5071450;28;19940;-71
2023/09/07 01:55:47;;;;;;;;;;;20.60;99.90;;;;;;5069988;28;19924;-72
2023/09/07 01:58:13;;;;;;;;;;;20.60;99.90;;;;;;5070066;28;20310;-72
2023/09/07 02:00:39;;;;;;;;;;;20.60;99.90;;;;;;5061783;28;19925;-71
2023/09/07 02:03:05;;;;;;;;;;;20.60;99.90;;;;;;5048495;28;19928;-72
2023/09/07 02:05:32;;;;;;;;;;;20.50;1.00;;;;;;5070363;28;19932;-72
2023/09/07 02:07:57;;;;;;;;;;;20.50;1.00;;;;;;5070634;28;20410;-72
2023/09/07 02:10:23;;;;;;;;;;;20.50;1.00;;;;;;5070942;28;19924;-72
2023/09/07 02:12:49;;;;;;;;;;;20.40;1.00;;;;;;5071129;28;19924;-71
2023/09/07 02:15:14;;;;;;;;;;;20.40;28.80;;;;;;5067826;28;20286;-72
2023/09/07 02:17:40;;;;;;;;;;;20.30;33.10;;;;;;5069967;28;19961;-72
2023/09/07 02:20:10;;;;;;;;;;;20.30;86.50;;;;;;5069371;28;19970;-72
2023/09/07 02:22:35;;;;;;;;;;;20.30;99.90;;;;;;5068744;28;19939;-71
2023/09/07 02:25:01;;;;;;;;;;;20.20;99.90;;;;;;5070177;28;19924;-71
2023/09/07 02:27:26;;;;;;;;;;;20.20;99.90;;;;;;5074431;28;19971;-72
2023/09/07 02:29:52;;;;;;;;;;;20.20;99.90;;;;;;5072190;28;19971;-72
2023/09/07 02:32:17;;;;;;;;;;;20.10;99.90;;;;;;5073910;28;19925;-71
2023/09/07 02:34:43;;;;;;;;;;;20.10;1.00;;;;;;5073230;28;19925;-71
2023/09/07 02:37:09;;;;;;;;;;;20.00;1.00;;;;;;5072525;28;19947;-72
2023/09/07 02:39:35;;;;;;;;;;;20.00;98.30;;;;;;5073374;28;20303;-72
2023/09/07 02:42:00;;;;;;;;;;;19.90;99.90;;;;;;5073193;28;20348;-72
2023/09/07 02:44:26;;;;;;;;;;;19.90;99.90;;;;;;5073550;28;19994;-72
2023/09/07 02:46:51;;;;;;;;;;;19.70;1.00;;;;;;5072898;28;20335;-72
2023/09/07 02:49:17;;;;;;;;;;;19.70;99.90;;;;;;5073027;28;19924;-71
2023/09/07 02:51:42;;;;;;;;;;;19.70;21.90;;;;;;5072888;28;19977;-72
2023/09/07 02:54:08;;;;;;;;;;;19.60;99.90;;;;;;5073334;28;19924;-72
2023/09/07 02:56:33;;;;;;;;;;;19.60;99.90;;;;;;5056345;28;19925;-72
2023/09/07 02:58:59;;;;;;;;;;;19.50;83.70;;;;;;5054304;28;20014;-72
2023/09/07 03:01:24;;;;;;;;;;;19.50;99.90;;;;;;5072501;28;19930;-71
2023/09/07 03:03:50;;;;;;;;;;;19.50;1.00;;;;;;5072520;28;19924;-71
2023/09/07 03:06:18;;;;;;;;;;;19.40;99.90;;;;;;5072736;28;19931;-72
2023/09/07 03:08:44;;;;;;;;;;;19.40;99.90;;;;;;5072709;28;19924;-72
2023/09/07 03:11:09;;;;;;;;;;;19.40;1.00;;;;;;5072873;28;19928;-72
2023/09/07 03:13:35;;;;;;;;;;;19.40;1.00;;;;;;5072394;28;20485;-71
2023/09/07 03:16:02;;;;;;;;;;;19.30;1.00;;;;;;5081375;28;20023;-71
2023/09/07 03:18:28;;;;;;;;;;;19.30;99.20;;;;;;5072720;28;19924;-71
2023/09/07 03:20:54;;;;;;;;;;;19.40;99.90;;;;;;5063534;28;20448;-71
2023/09/07 03:23:19;;;;;;;;;;;19.40;99.90;;;;;;5072688;28;19925;-71
2023/09/07 03:25:45;;;;;;;;;;;19.40;99.90;;;;;;5059807;28;19977;-71
2023/09/07 03:28:10;;;;;;;;;;;19.40;97.90;;;;;;5053385;28;19924;-71
2023/09/07 03:30:36;;;;;;;;;;;19.50;99.90;;;;;;5072715;28;19993;-71
2023/09/07 03:33:03;;;;;;;;;;;19.50;99.90;;;;;;5073051;28;20291;-71
2023/09/07 03:35:28;;;;;;;;;;;19.50;1.00;;;;;;5070775;28;19946;-71
2023/09/07 03:37:54;;;;;;;;;;;19.50;28.90;;;;;;5071503;28;19924;-71
2023/09/07 03:40:20;;;;;;;;;;;19.50;1.00;;;;;;5071989;28;19936;-71
2023/09/07 03:42:46;;;;;;;;;;;19.50;99.90;;;;;;5071506;28;19931;-71
2023/09/07 03:45:11;;;;;;;;;;;19.50;99.90;;;;;;5060642;28;19925;-71
2023/09/07 03:47:37;;;;;;;;;;;19.50;1.00;;;;;;5072199;28;19925;-71
2023/09/07 03:50:03;;;;;;;;;;;19.50;99.90;;;;;;5071846;28;19931;-71
2023/09/07 03:52:28;;;;;;;;;;;19.50;99.90;;;;;;5071520;28;19928;-71
2023/09/07 03:54:55;;;;;;;;;;;19.50;1.00;;;;;;5071894;28;20310;-71
2023/09/07 03:57:21;;;;;;;;;;;19.50;31.60;;;;;;5071932;28;20337;-71
2023/09/07 03:59:47;;;;;;;;;;;19.50;99.90;;;;;;5072277;28;19928;-71
2023/09/07 04:02:12;;;;;;;;;;;19.50;1.00;;;;;;5072095;28;19928;-71
2023/09/07 04:04:38;;;;;;;;;;;19.40;12.40;;;;;;5072403;28;19970;-71
2023/09/07 04:07:04;;;;;;;;;;;19.40;99.90;;;;;;5072125;28;20291;-71
2023/09/07 04:09:29;;;;;;;;;;;19.40;99.90;;;;;;5073269;28;20023;-71
2023/09/07 04:11:55;;;;;;;;;;;19.50;99.90;;;;;;5061497;28;19975;-71
2023/09/07 04:14:20;;;;;;;;;;;19.50;1.00;;;;;;5070189;28;19924;-71
2023/09/07 04:16:46;;;;;;;;;;;19.40;99.90;;;;;;5072285;28;19933;-71
2023/09/07 04:19:11;;;;;;;;;;;19.40;1.00;;;;;;5072669;28;19978;-70
2023/09/07 04:21:38;;;;;;;;;;;19.40;99.90;;;;;;5071980;28;19978;-70
2023/09/07 04:24:04;;;;;;;;;;;19.50;1.00;;;;;;5060163;28;19924;-71
2023/09/07 04:26:29;;;;;;;;;;;19.40;72.40;;;;;;5069894;28;19931;-71
2023/09/07 04:28:55;;;;;;;;;;;19.40;1.00;;;;;;5080274;28;19924;-71
2023/09/07 04:31:21;;;;;;;;;;;19.40;99.90;;;;;;5075839;28;19924;-71
2023/09/07 04:33:46;;;;;;;;;;;19.40;1.00;;;;;;5079478;28;19924;-72
2023/09/07 04:36:13;;;;;;;;;;;19.40;17.80;;;;;;5076218;28;19981;-71
2023/09/07 04:38:39;;;;;;;;;;;19.40;99.90;;;;;;5080397;28;19932;-71
2023/09/07 04:41:08;;;;;;;;;;;19.40;99.90;;;;;;5075939;28;20686;-71
2023/09/07 04:43:34;;;;;;;;;;;19.40;33.40;;;;;;5067978;28;20014;-71
2023/09/07 04:45:59;;;;;;;;;;;19.40;99.90;;;;;;5076336;28;20020;-71
2023/09/07 04:48:25;;;;;;;;;;;19.30;1.00;;;;;;5075421;28;20416;-71
2023/09/07 04:51:00;;;;;;;;;;;19.30;99.90;;;;;;5069897;28;19932;-71
2023/09/07 04:53:28;;;;;;;;;;;19.30;99.90;;;;;;5062130;28;19924;-71
2023/09/07 04:55:53;;;;;;;;;;;19.30;1.00;;;;;;5069782;28;19931;-71
2023/09/07 04:58:19;;;;;;;;;;;19.30;9.50;;;;;;5070279;28;19925;-71
2023/09/07 05:00:45;;;;;;;;;;;19.30;1.00;;;;;;5070402;28;19924;-71
2023/09/07 05:03:10;;;;;;;;;;;19.20;1.00;;;;;;5070043;28;19967;-71
2023/09/07 05:05:36;;;;;;;;;;;19.20;10.50;;;;;;5069991;28;20300;-71
2023/09/07 05:08:01;;;;;;;;;;;19.20;99.90;;;;;;5070199;28;19925;-71
2023/09/07 05:10:27;;;;;;;;;;;19.20;99.90;;;;;;5076794;28;19925;-71
2023/09/07 05:12:52;;;;;;;;;;;19.20;99.90;;;;;;5063420;28;19931;-70
2023/09/07 05:15:18;;;;;;;;;;;19.10;99.90;;;;;;5069698;28;19932;-70
2023/09/07 05:17:43;;;;;;;;;;;19.10;99.90;;;;;;5070743;28;20007;-70
2023/09/07 05:20:09;;;;;;;;;;;19.10;1.00;;;;;;5066310;28;19932;-71
2023/09/07 05:22:37;;;;;;;;;;;19.10;1.00;;;;;;5064368;28;19929;-73
2023/09/07 05:25:03;;;;;;;;;;;19.10;1.00;;;;;;5062885;28;20061;-71
2023/09/07 05:27:28;;;;;;;;;;;19.10;1.00;;;;;;5070796;28;20007;-71
2023/09/07 05:29:54;;;;;;;;;;;19.10;1.00;;;;;;5070602;28;20299;-71
2023/09/07 05:32:19;;;;;;;;;;;19.10;1.00;;;;;;5070381;28;20435;-71
2023/09/07 05:34:45;;;;;;;;;;;19.10;1.00;;;;;;5071032;28;19924;-71
2023/09/07 05:37:10;;;;;;;;;;;19.20;1.00;;;;;;5071926;28;19924;-71
2023/09/07 05:39:36;;;;;;;;;;;19.20;1.00;;;;;;5071413;28;19925;-71
2023/09/07 05:42:01;;;;;;;;;;;19.20;1.00;;;;;;5055002;28;19978;-71
2023/09/07 05:44:27;;;;;;;;;;;19.20;1.00;;;;;;5071578;28;19928;-71
2023/09/07 05:46:52;;;;;;;;;;;19.20;1.00;;;;;;5071417;28;19924;-71
2023/09/07 05:49:18;;;;;;;;;;;19.20;11.70;;;;;;5053849;28;19928;-71
2023/09/07 05:51:43;;;;;;;;;;;19.30;15.60;;;;;;5061754;28;20275;-71
2023/09/07 05:54:09;;;;;;;;;;;19.30;50.50;;;;;;5070634;28;19924;-71
2023/09/07 05:56:34;;;;;;;;;;;19.30;65.20;;;;;;5073495;28;19932;-71
2023/09/07 05:59:00;;;;;;;;;;;19.40;73.90;;;;;;5070679;28;19983;-71
2023/09/07 06:01:26;;;;;;;;;;;19.40;86.80;;;;;;5079530;28;20035;-71
2023/09/07 06:03:51;;;;;;;;;;;19.50;90.00;;;;;;5076128;28;20402;-71
2023/09/07 06:06:17;;;;;;;;;;;19.50;92.10;;;;;;5078459;28;20371;-71
2023/09/07 06:08:42;;;;;;;;;;;19.50;81.40;;;;;;5073179;28;19925;-71
2023/09/07 06:11:07;;;;;;;;;;;19.60;90.10;;;;;;5073446;28;19941;-71
2023/09/07 06:13:33;;;;;;;;;;;19.60;97.40;;;;;;5073511;28;20698;-71
2023/09/07 06:16:00;;;;;;;;;;;19.60;96.70;;;;;;5073634;28;19939;-71
2023/09/07 06:18:26;;;;;;;;;;;19.60;99.90;;;;;;5073413;28;20299;-71
2023/09/07 06:20:51;;;;;;;;;;;19.80;99.90;;;;;;5073406;28;19924;-71
2023/09/07 06:23:17;;;;;;;;;;;19.80;99.90;;;;;;5073319;28;19929;-71
2023/09/07 06:25:42;;;;;;;;;;;19.80;30.00;;;;;;5074101;28;20009;-71
2023/09/07 06:28:08;;;;;;;;;;;19.90;1.00;;;;;;5072899;28;19932;-71
2023/09/07 06:30:33;;;;;;;;;;;20.00;1.00;;;;;;5073919;28;20310;-71
2023/09/07 06:32:59;;;;;;;;;;;20.00;1.00;;;;;;5072968;28;19978;-71
2023/09/07 06:35:24;;;;;;;;;;;20.10;1.00;;;;;;5074871;28;19932;-71
2023/09/07 06:37:50;;;;;;;;;;;20.10;1.00;;;;;;5073775;28;20058;-71
2023/09/07 06:40:17;;;;;;;;;;;20.20;1.00;;;;;;5075588;28;20358;-71
2023/09/07 06:42:43;;;;;;;;;;;20.30;1.00;;;;;;5074295;28;19936;-71
2023/09/07 06:45:09;;;;;;;;;;;20.30;1.00;;;;;;5074171;28;20171;-71
2023/09/07 06:47:35;;;;;;;;;;;20.40;1.00;;;;;;5073905;28;19956;-71
2023/09/07 06:50:01;;;;;;;;;;;20.40;1.00;;;;;;5075153;28;20412;-71
2023/09/07 06:52:26;;;;;;;;;;;20.50;99.90;;;;;;5072469;28;19935;-71
2023/09/07 06:54:55;;;;;;;;;;;20.50;99.90;;;;;;5076849;28;19924;-71
2023/09/07 06:57:21;;;;;;;;;;;20.60;99.90;;;;;;5074078;28;19929;-71
2023/09/07 06:59:47;;;;;;;;;;;20.60;99.90;;;;;;5076217;28;19924;-71
2023/09/07 07:02:12;;;;;;;;;;;20.70;99.90;;;;;;5071256;28;19930;-71
2023/09/07 07:04:38;;;;;;;;;;;20.70;99.90;;;;;;5075837;28;20583;-71
2023/09/07 07:07:04;;;;;;;;;;;20.80;99.90;;;;;;5070746;28;20501;-71
2023/09/07 07:09:30;;;;;;;;;;;20.80;99.90;;;;;;5075702;28;20063;-71
2023/09/07 07:11:56;;;;;;;;;;;20.80;10.90;;;;;;5073946;28;20648;-71
2023/09/07 07:14:21;;;;;;;;;;;20.90;1.00;;;;;;5075792;28;20019;-71
2023/09/07 07:16:47;;;;;;;;;;;20.90;88.10;;;;;;5073763;28;20356;-71
2023/09/07 07:19:12;;;;;;;;;;;21.00;99.90;;;;;;5074991;28;20674;-72
2023/09/07 07:21:38;;;;;;;;;;;21.00;11.80;;;;;;5053775;28;19924;-72
2023/09/07 07:24:06;;;;;;;;;;;21.10;99.90;;;;;;5073241;28;20015;-71
2023/09/07 07:26:32;;;;;;;;;;;21.20;1.00;;;;;;5072479;28;19924;-72
2023/09/07 07:28:57;;;;;;;;;;;21.20;99.90;;;;;;5071556;28;19948;-72
2023/09/07 07:31:23;;;;;;;;;;;21.20;1.00;;;;;;5071381;28;19924;-71
2023/09/07 07:33:49;;;;;;;;;;;21.30;13.70;;;;;;5068313;28;19925;-71
2023/09/07 07:36:14;;;;;;;;;;;21.40;1.00;;;;;;5061306;28;19924;-71
2023/09/07 07:38:40;;;;;;;;;;;21.50;99.90;;;;;;5071590;28;19928;-72
2023/09/07 07:41:05;;;;;;;;;;;21.50;99.90;;;;;;5069580;28;19934;-71
2023/09/07 07:43:32;;;;;;;;;;;21.50;92.60;;;;;;5071986;28;20031;-72
2023/09/07 07:45:58;;;;;;;;;;;21.60;1.00;;;;;;5062368;28;20286;-71
2023/09/07 07:48:23;;;;;;;;;;;21.70;99.90;;;;;;5070123;28;19928;-71
2023/09/07 07:50:49;;;;;;;;;;;21.80;99.90;;;;;;5072125;28;19924;-71
2023/09/07 07:53:14;;;;;;;;;;;21.80;1.00;;;;;;5066241;28;20291;-72
2023/09/07 07:55:40;;;;;;;;;;;21.90;1.00;;;;;;5071362;28;19929;-71
2023/09/07 07:58:09;;;;;;;;;;;22.00;2.70;;;;;;5071088;28;20443;-71
2023/09/07 08:00:35;;;;;;;;;;;22.00;1.00;;;;;;5071590;28;19928;-71
2023/09/07 08:03:05;;;;;;;;;;;22.10;99.90;;;;;;5070391;28;19974;-71
2023/09/07 08:05:31;;;;;;;;;;;22.20;1.00;;;;;;5073699;28;19933;-71
2023/09/07 08:07:56;;;;;;;;;;;22.40;99.90;;;;;;5067587;28;19973;-71
2023/09/07 08:10:22;;;;;;;;;;;22.40;99.90;;;;;;5071252;28;20005;-71
2023/09/07 08:12:48;;;;;;;;;;;22.50;99.90;;;;;;5060613;28;19991;-71
2023/09/07 08:15:14;;;;;;;;;;;22.60;25.50;;;;;;5073546;28;19977;-71
2023/09/07 08:17:40;;;;;;;;;;;22.60;1.00;;;;;;5073151;28;19928;-72
2023/09/07 08:20:07;;;;;;;;;;;22.70;1.00;;;;;;5073764;28;19928;-71
2023/09/07 08:22:36;;;;;;;;;;;22.80;1.00;;;;;;5071988;28;19928;-71
2023/09/07 08:25:02;;;;;;;;;;;22.80;1.00;;;;;;5070436;28;19925;-71
2023/09/07 08:27:27;;;;;;;;;;;22.90;99.90;;;;;;5069731;28;19924;-71
2023/09/07 08:29:54;;;;;;;;;;;23.00;99.90;;;;;;5058369;28;19924;-72
2023/09/07 08:32:19;;;;;;;;;;;23.00;99.90;;;;;;5069902;28;19925;-71
2023/09/07 08:34:45;;;;;;;;;;;23.10;99.90;;;;;;5070566;28;19931;-71
2023/09/07 08:37:10;;;;;;;;;;;23.20;99.90;;;;;;5070345;28;20344;-71
2023/09/07 08:39:36;;;;;;;;;;;23.20;99.90;;;;;;5057778;28;20288;-71
2023/09/07 08:42:02;;;;;;;;;;;23.40;90.10;;;;;;5070132;28;19924;-72
2023/09/07 08:44:28;;;;;;;;;;;23.40;36.60;;;;;;5058503;28;19925;-71
2023/09/07 08:46:54;;;;;;;;;;;23.50;1.00;;;;;;5069529;28;20413;-71
2023/09/07 08:49:20;;;;;;;;;;;23.60;1.00;;;;;;5070790;28;19986;-71
2023/09/07 08:51:46;;;;;;;;;;;23.70;1.00;;;;;;5058224;28;19924;-71
2023/09/07 08:54:12;;;;;;;;;;;23.70;1.00;;;;;;5070424;28;19924;-71
2023/09/07 08:56:37;;;;;;;;;;;23.80;1.00;;;;;;5069313;28;19928;-72
2023/09/07 08:59:04;;;;;;;;;;;23.90;1.00;;;;;;5070010;28;19994;-71
2023/09/07 09:01:31;;;;;;;;;;;23.90;1.00;;;;;;5058483;28;19928;-71
2023/09/07 09:03:57;;;;;;;;;;;24.00;1.00;;;;;;5070112;28;19928;-71
2023/09/07 09:06:23;;;;;;;;;;;24.10;1.00;;;;;;5069602;28;19997;-71
2023/09/07 09:08:52;;;;;;;;;;;24.20;1.00;;;;;;5069581;28;19925;-71
2023/09/07 09:11:17;;;;;;;;;;;24.20;1.00;;;;;;5069725;28;19931;-71
2023/09/07 09:13:43;;;;;;;;;;;24.30;1.00;;;;;;5069359;28;19924;-71
2023/09/07 09:16:09;;;;;;;;;;;24.40;1.00;;;;;;5069987;28;19924;-71
2023/09/07 09:18:35;;;;;;;;;;;24.70;1.00;;;;;;5070983;28;19924;-72
2023/09/07 09:21:00;;;;;;;;;;;25.40;1.00;;;;;;5067386;28;20364;-72
2023/09/07 09:23:33;;;;;;;;;;;26.40;1.00;;;;;;5069618;28;19924;-72
2023/09/07 09:25:59;;;;;;;;;;;27.20;99.90;;;;;;5069514;28;20418;-72
2023/09/07 09:28:26;;;;;;;;;;;27.90;99.90;;;;;;5069456;28;19925;-72
2023/09/07 09:30:51;;;;;;;;;;;28.30;99.90;;;;;;5071798;28;20015;-72
2023/09/07 09:33:19;;;;;;;;;;;28.70;99.90;;;;;;5060181;28;20009;-72
2023/09/07 09:35:45;;;;;;;;;;;29.10;99.90;;;;;;5071976;28;19931;-72
2023/09/07 09:38:13;;;;;;;;;;;29.40;99.90;;;;;;5057806;28;20307;-72
2023/09/07 09:40:39;;;;;;;;;;;29.70;99.90;;;;;;5071103;28;19924;-72
2023/09/07 09:43:04;;;;;;;;;;;30.00;99.90;;;;;;5069759;28;19947;-72
2023/09/07 09:45:30;;;;;;;;;;;30.40;99.90;;;;;;5070151;28;20035;-72
2023/09/07 09:47:56;;;;;;;;;;;30.50;99.90;;;;;;5071897;28;20391;-72
2023/09/07 09:50:22;;;;;;;;;;;30.80;99.90;;;;;;5069311;28;19931;-72
2023/09/07 09:52:48;;;;;;;;;;;31.00;99.90;;;;;;5070230;28;19924;-72
2023/09/07 09:55:13;;;;;;;;;;;31.30;99.90;;;;;;5050893;28;20288;-72
2023/09/07 09:57:39;;;;;;;;;;;31.40;99.90;;;;;;5069073;28;19955;-72
2023/09/07 10:02:44;;;;;;;;;;;31.70;99.90;;;;;;5069157;28;20294;-72
2023/09/07 10:05:11;;;;;;;6.22;3.28;;;31.90;99.90;;;;;;5061202;28;19932;-72
2023/09/07 10:08:05;;;;;;;;;;;32.00;99.90;;;;;;5070298;28;20040;-72
2023/09/07 10:10:37;;;;;;;8.43;3.20;;;32.20;99.90;;;;;;5066300;28;19924;-72
2023/09/07 10:13:06;;;;;;;4.72;3.00;;;32.50;99.90;;;;;;5068385;28;20079;-72
2023/09/07 10:15:32;;;;;;;5.15;2.33;;;32.90;99.90;;;;;;5071567;28;20048;-72
2023/09/07 10:18:16;;;;;;;9.65;2.80;;;33.00;99.90;;;;;;5053852;28;20041;-73
2023/09/07 10:20:57;;;;;;;6.30;3.20;;;33.20;99.90;;;;;;5070208;28;20089;-72
2023/09/07 10:23:34;;;;;;;5.22;2.83;;;33.20;99.90;;;;;;5060328;28;20426;-72
2023/09/07 10:26:00;;;;;;;6.15;2.63;;;33.20;99.90;;;;;;5067514;28;20453;-73
2023/09/07 10:28:26;;;;;;;3.95;2.65;;;33.30;99.90;;;;;;5067880;28;20045;-72
2023/09/07 10:31:19;;;;;;;4.78;2.78;;;33.30;99.90;;;;;;5056739;28;20829;-73
2023/09/07 10:33:45;;;;;;;5.88;2.70;;;33.40;99.90;;;;;;5062352;28;20421;-73
2023/09/07 10:36:26;;;;;;;6.40;2.58;;;33.50;99.90;;;;;;5039907;28;20408;-72
2023/09/07 10:38:55;;;;;;;4.40;2.87;;;33.50;99.90;;;;;;5067700;28;20763;-72
2023/09/07 10:41:20;;;;;;;4.90;2.28;;;33.60;99.90;;;;;;5067989;28;20287;-72
2023/09/07 10:43:52;;;;;;;4.93;2.30;;;33.90;99.90;;;;;;5068437;28;20908;-72
2023/09/07 10:46:22;;;;;;;3.43;2.50;;;34.10;99.90;;;;;;5069036;28;20074;-72
2023/09/07 10:48:50;;;;;;;3.72;2.97;;;34.10;99.90;;;;;;5061468;28;20448;-72
2023/09/07 10:51:16;;;;;;;5.88;2.90;;;34.00;99.90;;;;;;5073333;28;20501;-72
2023/09/07 10:53:42;;;;;;;5.15;2.42;;;34.10;99.90;;;;;;5073011;28;20123;-72
2023/09/07 10:56:08;;;;;;;5.57;2.90;;;34.20;99.90;;;;;;5071548;28;20445;-73
2023/09/07 10:58:40;;;;;;;4.10;3.05;;;34.40;99.90;;;;;;5061801;28;20569;-72
2023/09/07 11:01:07;;;;;;;5.40;2.97;;;34.40;99.90;;;;;;5071506;28;20407;-73
2023/09/07 11:03:33;;;;;;;3.73;2.80;;;34.30;99.90;;;;;;5071712;28;20411;-72
2023/09/07 11:06:07;;;;;;;5.03;3.28;;;34.50;99.90;;;;;;5069571;28;20773;-72
2023/09/07 11:08:33;;;;;;;;;;;34.80;99.90;;;;;;5054777;28;20052;-72
2023/09/07 11:10:59;;;;;;;;;;;35.00;99.90;;;;;;5059918;28;19920;-72
2023/09/07 11:13:26;;;;;;;;;;;35.00;99.90;;;;;;5063642;28;19966;-72
2023/09/07 11:15:55;;;;;;;;;;;35.00;99.90;;;;;;5068597;28;19973;-72
2023/09/07 11:18:22;;;;;;;;;;;34.90;99.90;;;;;;5073126;28;19926;-72
2023/09/07 11:20:48;;;;;;;7.38;2.72;;;34.80;99.90;;;;;;5071900;28;19928;-72
2023/09/07 11:23:15;;;;;;;3.63;2.72;;;34.70;99.90;;;;;;5070300;28;20510;-72
2023/09/07 11:25:41;;;;;;;5.35;2.92;;;34.80;99.90;;;;;;5070855;28;20186;-72
2023/09/07 11:28:08;;;;;;;4.57;2.95;;;35.00;99.90;;;;;;5070284;28;20395;-72
2023/09/07 11:30:34;;;;;;;;;;;35.00;99.90;;;;;;5073012;28;20048;-72
2023/09/07 11:33:07;;;;;;;;;;;35.10;99.90;;;;;;5054169;28;20297;-72
2023/09/07 11:35:35;;;;;;;;;;;35.20;99.90;;;;;;5072059;28;19928;-72
2023/09/07 11:38:03;;;;;;;;;;;35.50;99.90;;;;;;5071784;28;19965;-73
2023/09/07 11:40:29;;;;;;;;;;;35.70;99.90;;;;;;5071879;28;19999;-72
2023/09/07 11:42:55;;;;;;;;;;;35.90;99.90;;;;;;5071424;28;20711;-72
2023/09/07 11:45:21;;;;;;;6.10;2.83;;;35.90;99.90;;;;;;5071130;28;19957;-72
2023/09/07 11:47:47;;;;;;;5.90;3.10;;;35.90;99.90;;;;;;5058984;28;20408;-72
2023/09/07 11:50:12;;;;;;;;;;;35.90;99.90;;;;;;5071591;28;20048;-72
2023/09/07 11:52:38;;;;;;;;;;;36.00;99.90;;;;;;5071116;28;19989;-72
2023/09/07 11:55:04;;;;;;;5.43;2.40;;;35.80;99.90;;;;;;5075248;28;19920;-72
2023/09/07 11:57:30;;;;;;;4.10;2.50;;;35.80;99.90;;;;;;5071684;28;20420;-72
2023/09/07 11:59:56;;;;;;;;;;;35.80;99.90;;;;;;5075221;28;20102;-72
2023/09/07 12:02:21;;;;;;;4.88;2.33;;;35.70;99.40;;;;;;5072631;28;20332;-72
2023/09/07 12:04:48;;;;;;;4.00;2.60;;;35.50;98.50;;;;;;5069620;28;20955;-72
2023/09/07 12:07:14;;;;;;;7.07;3.13;;;35.50;98.40;;;;;;5069856;28;20036;-72
2023/09/07 12:09:40;;;;;;;;;;;35.50;99.90;;;;;;5068721;28;20047;-71
2023/09/07 12:12:05;;;;;;;;;;;35.80;98.80;;;;;;5071855;28;19954;-71
2023/09/07 12:14:31;;;;;;;;;;;36.10;98.90;;;;;;5071563;28;19970;-71
2023/09/07 12:16:57;;;;;;;;;;;36.20;98.30;;;;;;5071528;28;20000;-71
2023/09/07 12:19:22;;;;;;;6.60;2.92;;;36.20;98.20;;;;;;5071081;28;19921;-70
2023/09/07 12:21:48;;;;;;;10.65;2.38;;;36.20;97.50;;;;;;5069828;28;20498;-71
2023/09/07 12:24:13;;;;;;;4.50;2.30;;;36.10;97.20;;;;;;5069053;28;20915;-72
2023/09/07 12:26:39;;;;;;;;;;;36.00;96.60;;;;;;5070568;28;20105;-71
2023/09/07 12:29:05;;;;;;;4.40;2.60;;;36.10;96.40;;;;;;5068374;28;20008;-71
2023/09/07 12:31:31;;;;;;;;;;;36.30;97.00;;;;;;5070484;28;20094;-72
2023/09/07 12:33:56;;;;;;;;;;;36.60;97.20;;;;;;5071795;28;19920;-72
2023/09/07 12:36:22;;;;;;;;;;;36.70;96.50;;;;;;5071924;28;20580;-72
2023/09/07 12:38:48;;;;;;;;;;;36.90;96.70;;;;;;5069926;28;20386;-72
2023/09/07 12:41:13;;;;;;;;;;;36.90;96.10;;;;;;5073288;28;19930;-72
2023/09/07 12:43:39;;;;;;;;;;;36.90;96.20;;;;;;5067851;28;20658;-72
2023/09/07 12:46:04;;;;;;;;;;;36.80;95.60;;;;;;5063681;28;19927;-72
2023/09/07 12:48:30;;;;;;;;;;;36.60;95.20;;;;;;5071419;28;19924;-72
2023/09/07 12:50:55;;;;;;;;;;;36.50;94.60;;;;;;5070576;28;19920;-72
2023/09/07 12:53:25;;;;;;;4.05;2.30;;;36.60;94.60;;;;;;5069767;28;19924;-72
2023/09/07 12:55:54;;;;;;;6.28;2.58;;;36.70;94.70;;;;;;5052375;28;20045;-72
2023/09/07 12:58:20;;;;;;;;;;;37.00;95.30;;;;;;5070527;28;20417;-72
2023/09/07 13:00:47;;;;;;;;;;;37.20;94.90;;;;;;5070466;28;19920;-72
2023/09/07 13:03:13;;;;;;;;;;;37.30;94.60;;;;;;5072194;28;20015;-72
2023/09/07 13:05:39;;;;;;;;;;;37.20;94.90;;;;;;5070239;28;20441;-72
2023/09/07 13:08:06;;;;;;;;;;;37.20;94.00;;;;;;5067352;28;19920;-72
2023/09/07 13:10:32;;;;;;;6.32;2.22;;;37.30;93.80;;;;;;5069398;28;20011;-72
2023/09/07 13:12:58;;;;;;;7.15;2.17;;;37.40;93.90;;;;;;5043707;28;20403;-72
2023/09/07 13:15:23;;;;;;;3.83;2.03;;;37.50;93.70;;;;;;5071749;28;20751;-72
2023/09/07 13:17:49;;;;;;;4.75;2.78;;;37.50;93.70;;;;;;5071400;28;20432;-72
2023/09/07 13:20:16;;;;;;;;;;;37.60;93.00;;;;;;5073528;28;20047;-72
2023/09/07 13:22:41;;;;;;;;;;;37.70;93.10;;;;;;5074287;28;20353;-72
2023/09/07 13:25:07;;;;;;;;;;;37.80;93.20;;;;;;5069630;28;20397;-72
2023/09/07 13:27:33;;;;;;;;;;;38.00;92.90;;;;;;5069679;28;19931;-72
2023/09/07 13:29:58;;;;;;;;;;;38.20;93.40;;;;;;5070489;28;19968;-72
2023/09/07 13:32:27;;;;;;;;;;;38.40;93.40;;;;;;5070901;28;20007;-72
2023/09/07 13:34:53;;;;;;;;;;;38.50;93.20;;;;;;5039157;28;19968;-72
2023/09/07 13:37:18;;;;;;;5.75;2.20;;;38.70;93.40;;;;;;5051202;28;19967;-72
2023/09/07 13:39:44;;;;;;;4.07;2.40;;;38.90;93.90;;;;;;5068916;28;20032;-72
2023/09/07 13:42:09;;;;;;;3.30;2.15;;;39.10;93.70;;;;;;5057559;28;20040;-72
2023/09/07 13:44:35;;;;;;;3.58;2.30;;;39.30;93.80;;;;;;5068722;28;20071;-72
2023/09/07 13:47:01;;;;;;;6.18;2.53;;;39.30;93.40;;;;;;5068337;28;20512;-72
2023/09/07 13:49:26;;;;;;;4.65;2.72;;;39.20;93.10;;;;;;5055812;28;20424;-72
2023/09/07 13:51:52;;;;;;;5.13;2.65;;;39.00;92.20;;;;;;5065960;28;20927;-72
2023/09/07 13:54:17;;;;;;;4.43;2.53;;;38.80;91.80;;;;;;5067644;28;20411;-72
2023/09/07 13:56:44;;;;;;;3.45;2.30;;;38.90;91.80;;;;;;5068905;28;20946;-72
2023/09/07 13:59:10;;;;;;;5.20;2.78;;;38.80;91.60;;;;;;5068796;28;20412;-72
2023/09/07 14:01:37;;;;;;;5.00;2.50;;;38.50;90.90;;;;;;5067664;28;20561;-71